createdAt,value
2016-05-23T00:00:05.962Z,21.41
2016-05-23T00:01:05.856Z,21.39
2016-05-23T00:02:06.062Z,21.32
2016-05-23T00:03:06.096Z,21.32
2016-05-23T00:04:06.130Z,21.27
2016-05-23T00:05:06.180Z,21.27
2016-05-23T00:06:06.073Z,21.23
2016-05-23T00:07:06.278Z,21.24
2016-05-23T00:08:06.313Z,21.21
2016-05-23T00:09:06.222Z,21.13
2016-05-23T00:10:06.240Z,21.13
2016-05-23T00:11:06.305Z,21.09
2016-05-23T00:12:06.495Z,21.08
2016-05-23T00:13:06.545Z,20.96
2016-05-23T00:14:07.063Z,21.11
2016-05-23T00:15:06.612Z,20.93
2016-05-23T00:16:06.646Z,21.01
2016-05-23T00:17:06.759Z,20.98
2016-05-23T00:18:06.746Z,20.86
2016-05-23T00:19:06.795Z,20.96
2016-05-23T00:20:06.861Z,20.83
2016-05-23T00:21:06.910Z,20.84
2016-05-23T00:22:06.913Z,20.83
2016-05-23T00:23:06.993Z,20.77
2016-05-23T00:24:07.028Z,20.72
2016-05-23T00:25:07.062Z,20.71
2016-05-23T00:26:07.095Z,20.62
2016-05-23T00:27:07.161Z,20.64
2016-05-23T00:28:07.053Z,20.62
2016-05-23T00:29:07.088Z,20.61
2016-05-23T00:30:07.122Z,20.59
2016-05-23T00:31:07.343Z,20.58
2016-05-23T00:32:07.362Z,20.54
2016-05-23T00:33:07.395Z,20.56
2016-05-23T00:34:07.476Z,20.61
2016-05-23T00:35:07.557Z,20.51
2016-05-23T00:36:07.544Z,20.54
2016-05-23T00:37:07.578Z,20.62
2016-05-23T00:38:07.628Z,20.58
2016-05-23T00:39:07.537Z,20.49
2016-05-23T00:40:07.695Z,20.59
2016-05-23T00:41:07.745Z,20.58
2016-05-23T00:42:07.825Z,20.51
2016-05-23T00:43:07.703Z,20.58
2016-05-23T00:44:08.050Z,20.58
2016-05-23T00:45:07.772Z,20.61
2016-05-23T00:46:07.805Z,20.59
2016-05-23T00:47:08.027Z,20.51
2016-05-23T00:48:07.889Z,20.65
2016-05-23T00:49:08.110Z,20.53
2016-05-23T00:50:08.144Z,20.61
2016-05-23T00:51:08.194Z,20.53
2016-05-23T00:52:08.119Z,20.58
2016-05-23T00:53:08.293Z,20.53
2016-05-23T00:54:08.311Z,20.62
2016-05-23T00:55:08.190Z,20.43
2016-05-23T00:56:08.442Z,20.53
2016-05-23T00:57:08.444Z,20.61
2016-05-23T00:58:08.354Z,20.46
2016-05-23T00:59:08.653Z,20.46
2016-05-23T01:00:08.593Z,20.47
2016-05-23T01:01:08.455Z,20.46
2016-05-23T01:02:08.662Z,20.43
2016-05-23T01:03:08.570Z,20.5
2016-05-23T01:04:08.744Z,20.42
2016-05-23T01:05:08.638Z,20.41
2016-05-23T01:06:08.844Z,20.42
2016-05-23T01:07:08.565Z,20.49
2016-05-23T01:08:08.911Z,20.41
2016-05-23T01:09:08.961Z,20.53
2016-05-23T01:10:08.839Z,20.46
2016-05-23T01:11:09.075Z,20.49
2016-05-23T01:12:09.078Z,20.38
2016-05-23T01:13:08.972Z,20.35
2016-05-23T01:14:09.272Z,20.41
2016-05-23T01:15:09.211Z,20.35
2016-05-23T01:16:09.261Z,20.43
2016-05-23T01:17:09.311Z,20.39
2016-05-23T01:18:09.376Z,20.34
2016-05-23T01:19:09.394Z,20.39
2016-05-23T01:20:09.428Z,20.3
2016-05-23T01:21:09.510Z,20.3
2016-05-23T01:22:09.512Z,20.27
2016-05-23T01:23:09.561Z,20.3
2016-05-23T01:24:09.626Z,20.3
2016-05-23T01:25:09.520Z,20.24
2016-05-23T01:26:09.569Z,20.28
2016-05-23T01:27:09.728Z,20.3
2016-05-23T01:28:09.779Z,20.18
2016-05-23T01:29:09.702Z,20.25
2016-05-23T01:30:09.861Z,20.3
2016-05-23T01:31:09.739Z,20.21
2016-05-23T01:32:09.960Z,20.24
2016-05-23T01:33:10.010Z,20.23
2016-05-23T01:34:09.887Z,20.18
2016-05-23T01:35:10.093Z,20.16
2016-05-23T01:36:09.956Z,20.09
2016-05-23T01:37:10.161Z,20.05
2016-05-23T01:38:10.211Z,19.97
2016-05-23T01:39:10.275Z,20.08
2016-05-23T01:40:10.295Z,19.95
2016-05-23T01:41:10.328Z,19.95
2016-05-23T01:42:10.378Z,19.94
2016-05-23T01:43:10.412Z,19.9
2016-05-23T01:44:10.477Z,19.91
2016-05-23T01:45:10.495Z,19.87
2016-05-23T01:46:10.436Z,19.87
2016-05-23T01:47:10.594Z,19.98
2016-05-23T01:48:10.628Z,19.9
2016-05-23T01:49:10.694Z,19.86
2016-05-23T01:50:10.758Z,19.88
2016-05-23T01:51:10.793Z,19.94
2016-05-23T01:52:10.811Z,19.86
2016-05-23T01:53:10.845Z,19.88
2016-05-23T01:54:10.926Z,19.79
2016-05-23T01:55:10.929Z,19.9
2016-05-23T01:56:10.994Z,19.73
2016-05-23T01:57:11.043Z,19.8
2016-05-23T01:58:10.905Z,19.75
2016-05-23T01:59:10.971Z,19.76
2016-05-23T02:00:11.163Z,19.78
2016-05-23T02:01:11.212Z,19.8
2016-05-23T02:02:11.232Z,19.73
2016-05-23T02:03:11.296Z,19.69
2016-05-23T02:04:11.486Z,19.69
2016-05-23T02:05:11.427Z,19.72
2016-05-23T02:06:11.414Z,19.69
2016-05-23T02:07:11.463Z,19.63
2016-05-23T02:08:11.529Z,19.61
2016-05-23T02:09:11.376Z,19.65
2016-05-23T02:10:11.581Z,19.65
2016-05-23T02:11:11.615Z,19.65
2016-05-23T02:12:11.695Z,19.58
2016-05-23T02:13:11.713Z,19.54
2016-05-23T02:14:11.748Z,19.6
2016-05-23T02:15:11.828Z,19.53
2016-05-23T02:16:11.863Z,19.5
2016-05-23T02:17:11.880Z,19.5
2016-05-23T02:18:11.930Z,19.46
2016-05-23T02:19:11.868Z,19.46
2016-05-23T02:20:11.902Z,19.47
2016-05-23T02:21:12.046Z,19.55
2016-05-23T02:22:12.080Z,19.38
2016-05-23T02:23:12.176Z,19.38
2016-05-23T02:24:12.163Z,19.42
2016-05-23T02:25:12.057Z,19.42
2016-05-23T02:26:12.262Z,19.39
2016-05-23T02:27:12.343Z,19.24
2016-05-23T02:28:12.346Z,19.35
2016-05-23T02:29:12.957Z,19.35
2016-05-23T02:30:12.460Z,19.33
2016-05-23T02:31:12.479Z,19.31
2016-05-23T02:32:12.356Z,19.28
2016-05-23T02:33:12.563Z,19.23
2016-05-23T02:34:12.440Z,19.24
2016-05-23T02:35:12.646Z,19.25
2016-05-23T02:36:12.679Z,19.29
2016-05-23T02:37:12.775Z,19.25
2016-05-23T02:38:12.467Z,19.18
2016-05-23T02:39:12.812Z,19.23
2016-05-23T02:40:12.862Z,19.23
2016-05-23T02:41:12.942Z,19.17
2016-05-23T02:42:12.837Z,19.2
2016-05-23T02:43:12.995Z,19.11
2016-05-23T02:44:13.045Z,19.11
2016-05-23T02:45:13.063Z,19.08
2016-05-23T02:46:12.956Z,19.1
2016-05-23T02:47:13.162Z,19.01
2016-05-23T02:48:13.211Z,18.94
2016-05-23T02:49:13.246Z,18.84
2016-05-23T02:50:13.139Z,18.86
2016-05-23T02:51:13.173Z,18.83
2016-05-23T02:52:13.410Z,18.79
2016-05-23T02:53:13.272Z,18.79
2016-05-23T02:54:13.477Z,18.82
2016-05-23T02:55:13.512Z,18.68
2016-05-23T02:56:13.405Z,18.74
2016-05-23T02:57:13.439Z,18.73
2016-05-23T02:58:13.614Z,18.64
2016-05-23T02:59:14.288Z,18.65
2016-05-23T03:00:13.712Z,18.64
2016-05-23T03:01:13.762Z,18.67
2016-05-23T03:02:13.796Z,18.59
2016-05-23T03:03:13.534Z,18.61
2016-05-23T03:04:13.723Z,18.65
2016-05-23T03:05:13.929Z,18.58
2016-05-23T03:06:13.962Z,18.62
2016-05-23T03:07:13.997Z,18.62
2016-05-23T03:08:13.890Z,18.62
2016-05-23T03:09:13.987Z,18.61
2016-05-23T03:10:14.145Z,18.59
2016-05-23T03:11:14.195Z,18.61
2016-05-23T03:12:14.229Z,18.54
2016-05-23T03:13:14.264Z,18.47
2016-05-23T03:14:14.219Z,18.62
2016-05-23T03:15:14.206Z,18.61
2016-05-23T03:16:14.397Z,18.59
2016-05-23T03:17:14.447Z,18.62
2016-05-23T03:18:14.495Z,18.61
2016-05-23T03:19:14.529Z,18.58
2016-05-23T03:20:14.580Z,18.67
2016-05-23T03:21:14.613Z,18.58
2016-05-23T03:22:14.663Z,18.57
2016-05-23T03:23:14.697Z,18.58
2016-05-23T03:24:14.574Z,18.54
2016-05-23T03:25:14.624Z,18.5
2016-05-23T03:26:14.814Z,18.58
2016-05-23T03:27:14.927Z,18.49
2016-05-23T03:28:14.897Z,18.43
2016-05-23T03:29:14.946Z,18.49
2016-05-23T03:30:14.996Z,18.49
2016-05-23T03:31:15.077Z,18.5
2016-05-23T03:32:15.096Z,18.5
2016-05-23T03:33:15.114Z,18.5
2016-05-23T03:34:15.210Z,18.55
2016-05-23T03:35:15.087Z,18.67
2016-05-23T03:36:15.248Z,18.61
2016-05-23T03:37:15.140Z,18.62
2016-05-23T03:38:15.362Z,18.65
2016-05-23T03:39:15.380Z,18.67
2016-05-23T03:40:15.242Z,18.68
2016-05-23T03:41:15.354Z,18.72
2016-05-23T03:42:15.498Z,18.7
2016-05-23T03:43:15.547Z,18.82
2016-05-23T03:44:15.597Z,18.68
2016-05-23T03:45:15.475Z,18.72
2016-05-23T03:46:15.508Z,18.76
2016-05-23T03:47:15.573Z,18.87
2016-05-23T03:48:15.763Z,18.79
2016-05-23T03:49:16.283Z,18.87
2016-05-23T03:50:15.847Z,18.87
2016-05-23T03:51:15.913Z,18.84
2016-05-23T03:52:15.775Z,18.84
2016-05-23T03:53:15.964Z,18.79
2016-05-23T03:54:16.014Z,18.82
2016-05-23T03:55:16.049Z,18.9
2016-05-23T03:56:16.098Z,18.91
2016-05-23T03:57:15.975Z,18.92
2016-05-23T03:58:16.197Z,18.8
2016-05-23T03:59:16.340Z,18.9
2016-05-23T04:00:16.327Z,18.98
2016-05-23T04:01:16.315Z,18.94
2016-05-23T04:02:16.363Z,18.99
2016-05-23T04:03:16.413Z,18.95
2016-05-23T04:04:16.432Z,19.02
2016-05-23T04:05:16.341Z,18.99
2016-05-23T04:06:16.515Z,18.98
2016-05-23T04:07:16.565Z,19.02
2016-05-23T04:08:16.615Z,19.08
2016-05-23T04:09:16.633Z,19.11
2016-05-23T04:10:16.542Z,19.18
2016-05-23T04:11:16.732Z,19.1
2016-05-23T04:12:16.781Z,19.18
2016-05-23T04:13:16.831Z,19.18
2016-05-23T04:14:16.850Z,19.2
2016-05-23T04:15:16.899Z,19.25
2016-05-23T04:16:16.964Z,19.25
2016-05-23T04:17:16.826Z,19.24
2016-05-23T04:18:17.032Z,19.2
2016-05-23T04:19:17.066Z,19.32
2016-05-23T04:20:17.162Z,19.23
2016-05-23T04:21:17.150Z,19.28
2016-05-23T04:22:17.214Z,19.31
2016-05-23T04:23:17.264Z,19.38
2016-05-23T04:24:17.283Z,19.25
2016-05-23T04:25:17.332Z,19.33
2016-05-23T04:26:17.366Z,19.36
2016-05-23T04:27:17.431Z,19.32
2016-05-23T04:28:17.309Z,19.32
2016-05-23T04:29:17.733Z,19.29
2016-05-23T04:30:17.518Z,19.32
2016-05-23T04:31:17.582Z,19.35
2016-05-23T04:32:17.460Z,19.29
2016-05-23T04:33:17.509Z,19.18
2016-05-23T04:34:17.731Z,19.15
2016-05-23T04:35:17.765Z,19.18
2016-05-23T04:36:17.799Z,19.28
2016-05-23T04:37:17.833Z,19.28
2016-05-23T04:38:17.914Z,19.2
2016-05-23T04:39:17.963Z,19.25
2016-05-23T04:40:17.982Z,19.24
2016-05-23T04:41:18.047Z,19.18
2016-05-23T04:42:18.050Z,19.23
2016-05-23T04:43:18.084Z,19.17
2016-05-23T04:44:18.665Z,19.18
2016-05-23T04:45:18.183Z,19.21
2016-05-23T04:46:18.217Z,19.23
2016-05-23T04:47:18.251Z,19.23
2016-05-23T04:48:18.300Z,19.28
2016-05-23T04:49:18.334Z,19.24
2016-05-23T04:50:18.650Z,19.25
2016-05-23T04:51:18.434Z,19.18
2016-05-23T04:52:18.499Z,19.24
2016-05-23T04:53:18.407Z,19.2
2016-05-23T04:54:18.567Z,19.23
2016-05-23T04:55:18.616Z,19.25
2016-05-23T04:56:18.650Z,19.28
2016-05-23T04:57:18.684Z,19.21
2016-05-23T04:58:18.562Z,19.25
2016-05-23T04:59:18.892Z,19.28
2016-05-23T05:00:18.707Z,19.32
2016-05-23T05:01:18.695Z,19.29
2016-05-23T05:02:18.885Z,19.25
2016-05-23T05:03:18.966Z,19.24
2016-05-23T05:04:18.827Z,19.25
2016-05-23T05:05:18.893Z,19.23
2016-05-23T05:06:19.052Z,19.17
2016-05-23T05:07:18.789Z,19.17
2016-05-23T05:08:19.151Z,19.2
2016-05-23T05:09:19.498Z,19.1
2016-05-23T05:10:19.282Z,19.1
2016-05-23T05:11:19.299Z,19.02
2016-05-23T05:12:19.365Z,19.06
2016-05-23T05:13:19.368Z,19.06
2016-05-23T05:14:19.729Z,18.97
2016-05-23T05:15:19.451Z,18.95
2016-05-23T05:16:19.484Z,18.94
2016-05-23T05:17:19.551Z,18.92
2016-05-23T05:18:19.678Z,18.79
2016-05-23T05:19:19.618Z,18.98
2016-05-23T05:20:20.277Z,18.84
2016-05-23T05:21:19.718Z,18.9
2016-05-23T05:22:19.579Z,18.82
2016-05-23T05:23:20.238Z,18.87
2016-05-23T05:24:19.820Z,18.9
2016-05-23T05:25:19.900Z,18.77
2016-05-23T05:26:19.918Z,18.87
2016-05-23T05:27:19.797Z,18.84
2016-05-23T05:28:20.002Z,18.94
2016-05-23T05:29:19.973Z,18.95
2016-05-23T05:30:20.070Z,18.98
2016-05-23T05:31:20.119Z,19.01
2016-05-23T05:32:20.247Z,18.97
2016-05-23T05:33:20.343Z,18.97
2016-05-23T05:34:20.252Z,18.94
2016-05-23T05:35:20.286Z,18.98
2016-05-23T05:36:20.321Z,18.97
2016-05-23T05:37:20.385Z,19.1
2016-05-23T05:38:20.294Z,19.08
2016-05-23T05:39:22.157Z,19.05
2016-05-23T05:40:20.738Z,18.92
2016-05-23T05:41:20.380Z,18.97
2016-05-23T05:42:20.587Z,19.08
2016-05-23T05:43:20.636Z,18.95
2016-05-23T05:44:20.685Z,18.99
2016-05-23T05:45:20.704Z,19.06
2016-05-23T05:46:20.847Z,19.05
2016-05-23T05:47:21.068Z,19.01
2016-05-23T05:48:20.853Z,19.11
2016-05-23T05:49:21.370Z,19.08
2016-05-23T05:50:20.967Z,19.18
2016-05-23T05:51:20.954Z,19.18
2016-05-23T05:52:20.864Z,19.15
2016-05-23T05:53:21.116Z,19.18
2016-05-23T05:54:21.087Z,19.23
2016-05-23T05:55:21.231Z,19.23
2016-05-23T05:56:21.170Z,19.24
2016-05-23T05:57:21.252Z,19.29
2016-05-23T05:58:21.270Z,19.35
2016-05-23T05:59:21.383Z,19.33
2016-05-23T06:00:21.385Z,19.32
2016-05-23T06:01:21.825Z,19.38
2016-05-23T06:02:21.437Z,19.32
2016-05-23T06:03:21.987Z,19.38
2016-05-23T06:04:21.521Z,19.42
2016-05-23T06:05:21.602Z,19.4
2016-05-23T06:06:22.245Z,19.48
2016-05-23T06:07:21.950Z,19.55
2016-05-23T06:08:21.702Z,19.63
2016-05-23T06:09:21.737Z,19.6
2016-05-23T06:10:21.771Z,19.68
2016-05-23T06:11:21.805Z,19.66
2016-05-23T06:12:21.870Z,19.63
2016-05-23T06:13:21.904Z,19.68
2016-05-23T06:14:21.812Z,19.6
2016-05-23T06:15:22.113Z,19.65
2016-05-23T06:16:22.115Z,19.63
2016-05-23T06:17:21.915Z,19.65
2016-05-23T06:18:22.105Z,19.65
2016-05-23T06:19:22.202Z,19.65
2016-05-23T06:20:22.204Z,19.68
2016-05-23T06:21:22.567Z,19.7
2016-05-23T06:22:22.898Z,19.76
2016-05-23T06:23:23.509Z,19.87
2016-05-23T06:24:22.370Z,19.86
2016-05-23T06:25:22.280Z,19.87
2016-05-23T06:26:25.408Z,19.98
2016-05-23T06:27:22.833Z,19.91
2016-05-23T06:28:23.006Z,19.95
2016-05-23T06:29:22.744Z,20.06
2016-05-23T06:30:24.184Z,20.06
2016-05-23T06:31:24.219Z,20.09
2016-05-23T06:32:22.721Z,20.15
2016-05-23T06:33:24.474Z,20.15
2016-05-23T06:34:23.258Z,20.2
2016-05-23T06:35:23.323Z,20.13
2016-05-23T06:36:23.419Z,20.3
2016-05-23T06:37:23.375Z,20.27
2016-05-23T06:38:23.300Z,20.3
2016-05-23T06:39:23.006Z,20.33
2016-05-23T06:40:25.085Z,20.41
2016-05-23T06:41:23.167Z,20.56
2016-05-23T06:42:23.138Z,20.64
2016-05-23T06:43:23.188Z,20.65
2016-05-23T06:44:23.549Z,20.69
2016-05-23T06:45:26.334Z,20.95
2016-05-23T06:46:23.337Z,21.01
2016-05-23T06:47:23.371Z,21.01
2016-05-23T06:48:23.249Z,21.29
2016-05-23T06:49:23.480Z,21.39
2016-05-23T06:50:23.383Z,21.59
2016-05-23T06:51:26.583Z,21.71
2016-05-23T06:52:23.533Z,21.88
2016-05-23T06:53:24.983Z,22.1
2016-05-23T06:54:23.837Z,22.31
2016-05-23T06:55:24.131Z,22.46
2016-05-23T06:56:24.174Z,22.5
2016-05-23T06:57:24.015Z,22.62
2016-05-23T06:58:24.026Z,22.87
2016-05-23T06:59:24.470Z,23.02
2016-05-23T07:00:25.303Z,23.14
2016-05-23T07:01:24.278Z,23.12
2016-05-23T07:02:23.908Z,23.14
2016-05-23T07:03:24.211Z,23.19
2016-05-23T07:04:24.434Z,23.22
2016-05-23T07:05:26.516Z,23.23
2016-05-23T07:06:24.441Z,23.17
2016-05-23T07:07:27.383Z,23.11
2016-05-23T07:08:24.496Z,23.14
2016-05-23T07:09:25.811Z,22.99
2016-05-23T07:10:26.143Z,23.07
2016-05-23T07:11:28.193Z,23.01
2016-05-23T07:12:25.461Z,23.01
2016-05-23T07:13:25.714Z,23.05
2016-05-23T07:14:25.890Z,23.01
2016-05-23T07:15:27.221Z,23.11
2016-05-23T07:16:28.707Z,23.07
2016-05-23T07:17:24.961Z,23.15
2016-05-23T07:18:25.152Z,23.07
2016-05-23T07:19:24.998Z,23.09
2016-05-23T07:20:25.219Z,23.09
2016-05-23T07:21:27.551Z,23.11
2016-05-23T07:22:26.225Z,23.17
2016-05-23T07:23:25.853Z,23.23
2016-05-23T07:24:26.793Z,23.11
2016-05-23T07:25:25.749Z,23.14
2016-05-23T07:26:26.970Z,22.99
2016-05-23T07:27:26.801Z,22.84
2016-05-23T07:28:26.975Z,22.54
2016-05-23T07:29:26.306Z,22.47
2016-05-23T07:30:26.559Z,22.5
2016-05-23T07:31:28.656Z,22.41
2016-05-23T07:32:27.080Z,22.28
2016-05-23T07:33:27.395Z,22.23
2016-05-23T07:34:28.256Z,22.28
2016-05-23T07:35:28.651Z,22.27
2016-05-23T07:36:27.731Z,22.29
2016-05-23T07:37:27.219Z,22.25
2016-05-23T07:38:27.440Z,22.29
2016-05-23T07:39:27.896Z,22.35
2016-05-23T07:40:27.508Z,22.29
2016-05-23T07:41:27.089Z,22.29
2016-05-23T07:42:27.607Z,22.27
2016-05-23T07:43:27.110Z,22.2
2016-05-23T07:44:28.049Z,22.12
2016-05-23T07:45:26.303Z,21.97
2016-05-23T07:46:26.211Z,21.97
2016-05-23T07:47:26.276Z,21.91
2016-05-23T07:48:27.498Z,21.71
2016-05-23T07:49:26.719Z,21.74
2016-05-23T07:50:26.393Z,21.67
2016-05-23T07:51:27.678Z,21.61
2016-05-23T07:52:26.946Z,21.61
2016-05-23T07:53:26.793Z,21.51
2016-05-23T07:54:26.654Z,21.45
2016-05-23T07:55:27.204Z,21.48
2016-05-23T07:56:30.941Z,21.64
2016-05-23T07:57:26.788Z,21.59
2016-05-23T07:58:26.743Z,21.61
2016-05-23T07:59:27.153Z,21.64
2016-05-23T08:00:26.842Z,21.66
2016-05-23T08:01:29.768Z,21.71
2016-05-23T08:02:26.926Z,21.71
2016-05-23T08:03:26.960Z,21.78
2016-05-23T08:04:27.041Z,21.79
2016-05-23T08:05:27.075Z,21.92
2016-05-23T08:06:27.093Z,22.09
2016-05-23T08:07:27.190Z,22.17
2016-05-23T08:08:27.192Z,22.38
2016-05-23T08:09:27.226Z,22.47
2016-05-23T08:10:27.511Z,22.72
2016-05-23T08:11:28.982Z,22.78
2016-05-23T08:12:28.344Z,22.87
2016-05-23T08:13:27.941Z,23.09
2016-05-23T08:14:28.272Z,23.14
2016-05-23T08:15:27.524Z,23.19
2016-05-23T08:16:28.494Z,23.35
2016-05-23T08:17:27.591Z,23.52
2016-05-23T08:18:27.782Z,23.52
2016-05-23T08:19:27.722Z,23.6
2016-05-23T08:20:27.631Z,23.6
2016-05-23T08:21:27.774Z,23.52
2016-05-23T08:22:27.840Z,23.65
2016-05-23T08:23:28.092Z,23.6
2016-05-23T08:24:27.954Z,23.6
2016-05-23T08:25:27.940Z,23.55
2016-05-23T08:26:30.491Z,23.64
2016-05-23T08:27:28.040Z,23.55
2016-05-23T08:28:28.590Z,23.49
2016-05-23T08:29:33.061Z,23.49
2016-05-23T08:30:28.439Z,23.58
2016-05-23T08:31:28.223Z,23.52
2016-05-23T08:32:28.273Z,23.45
2016-05-23T08:33:28.337Z,23.5
2016-05-23T08:34:28.481Z,23.6
2016-05-23T08:35:28.437Z,23.6
2016-05-23T08:36:30.456Z,23.67
2016-05-23T08:37:28.505Z,23.76
2016-05-23T08:38:28.570Z,23.77
2016-05-23T08:39:28.776Z,23.94
2016-05-23T08:40:28.622Z,23.9
2016-05-23T08:41:29.344Z,24.04
2016-05-23T08:42:28.955Z,24.04
2016-05-23T08:43:28.942Z,24.1
2016-05-23T08:44:29.461Z,24.22
2016-05-23T08:45:32.605Z,24.29
2016-05-23T08:46:32.076Z,24.2
2016-05-23T08:47:30.563Z,24.29
2016-05-23T08:48:32.175Z,24.31
2016-05-23T08:49:32.538Z,24.35
2016-05-23T08:50:30.774Z,24.39
2016-05-23T08:51:29.167Z,24.44
2016-05-23T08:52:31.654Z,24.38
2016-05-23T08:53:35.501Z,24.49
2016-05-23T08:54:32.582Z,24.56
2016-05-23T08:55:32.491Z,24.61
2016-05-23T08:56:33.041Z,24.75
2016-05-23T08:57:31.652Z,24.82
2016-05-23T08:58:31.030Z,24.88
2016-05-23T08:59:32.720Z,24.95
2016-05-23T09:00:29.582Z,24.97
2016-05-23T09:01:31.366Z,25.05
2016-05-23T09:02:29.665Z,25.12
2016-05-23T09:03:29.934Z,25.13
2016-05-23T09:04:30.296Z,25.1
2016-05-23T09:05:29.799Z,25.1
2016-05-23T09:06:29.848Z,25.15
2016-05-23T09:07:30.289Z,25.22
2016-05-23T09:08:31.479Z,25.19
2016-05-23T09:09:32.231Z,25.15
2016-05-23T09:10:30.078Z,25.09
2016-05-23T09:11:31.096Z,25.07
2016-05-23T09:12:30.114Z,25.19
2016-05-23T09:13:30.195Z,25.31
2016-05-23T09:14:30.464Z,25.34
2016-05-23T09:15:30.654Z,25.42
2016-05-23T09:16:30.844Z,25.56
2016-05-23T09:17:30.222Z,25.59
2016-05-23T09:18:30.366Z,25.68
2016-05-23T09:19:30.509Z,25.72
2016-05-23T09:20:30.527Z,25.84
2016-05-23T09:21:31.374Z,25.94
2016-05-23T09:22:30.735Z,26.01
2016-05-23T09:23:30.675Z,26.04
2016-05-23T09:24:31.115Z,26.06
2016-05-23T09:25:31.071Z,26.11
2016-05-23T09:26:30.762Z,26.09
2016-05-23T09:27:30.655Z,26.2
2016-05-23T09:28:30.860Z,26.18
2016-05-23T09:29:30.941Z,26.29
2016-05-23T09:30:30.960Z,26.43
2016-05-23T09:31:31.040Z,26.58
2016-05-23T09:32:32.387Z,26.74
2016-05-23T09:33:31.296Z,26.83
2016-05-23T09:34:31.173Z,26.87
2016-05-23T09:35:35.239Z,26.87
2016-05-23T09:36:30.945Z,26.96
2016-05-23T09:37:33.212Z,27.02
2016-05-23T09:38:32.590Z,27.13
2016-05-23T09:39:31.250Z,27.11
2016-05-23T09:40:31.877Z,27.24
2016-05-23T09:41:31.786Z,27.28
2016-05-23T09:42:31.570Z,27.35
2016-05-23T09:43:31.604Z,27.28
2016-05-23T09:44:31.748Z,27.23
2016-05-23T09:45:31.688Z,27.31
2016-05-23T09:46:32.862Z,27.38
2016-05-23T09:47:32.802Z,27.41
2016-05-23T09:48:31.822Z,27.48
2016-05-23T09:49:31.870Z,27.53
2016-05-23T09:50:31.904Z,27.51
2016-05-23T09:51:31.985Z,27.46
2016-05-23T09:52:33.066Z,27.38
2016-05-23T09:53:32.225Z,27.28
2016-05-23T09:54:34.024Z,27.26
2016-05-23T09:55:32.168Z,27.1
2016-05-23T09:56:32.093Z,26.96
2016-05-23T09:57:32.704Z,26.84
2016-05-23T09:58:33.098Z,26.77
2016-05-23T09:59:32.397Z,26.76
2016-05-23T10:00:32.744Z,26.79
2016-05-23T10:01:33.715Z,26.83
2016-05-23T10:02:34.984Z,26.83
2016-05-23T10:03:32.627Z,26.84
2016-05-23T10:04:33.021Z,26.79
2016-05-23T10:05:32.632Z,26.8
2016-05-23T10:06:32.526Z,26.64
2016-05-23T10:07:33.918Z,26.65
2016-05-23T10:08:32.796Z,26.43
2016-05-23T10:09:33.392Z,26.39
2016-05-23T10:10:32.848Z,26.25
2016-05-23T10:11:33.836Z,26.17
2016-05-23T10:12:36.057Z,26.17
2016-05-23T10:13:35.153Z,25.98
2016-05-23T10:14:33.453Z,26.01
2016-05-23T10:15:32.956Z,25.91
2016-05-23T10:16:34.365Z,25.82
2016-05-23T10:17:33.602Z,25.57
2016-05-23T10:18:33.385Z,25.46
2016-05-23T10:19:33.686Z,25.37
2016-05-23T10:20:33.391Z,25.35
2016-05-23T10:21:33.941Z,25.34
2016-05-23T10:22:35.255Z,25.31
2016-05-23T10:23:33.540Z,25.32
2016-05-23T10:24:35.589Z,25.31
2016-05-23T10:25:33.577Z,25.16
2016-05-23T10:26:33.673Z,25.27
2016-05-23T10:27:34.035Z,25.22
2016-05-23T10:28:33.725Z,25.2
2016-05-23T10:29:36.025Z,25.13
2016-05-23T10:30:33.809Z,25.06
2016-05-23T10:31:35.358Z,25.15
2016-05-23T10:32:34.955Z,25.02
2016-05-23T10:33:36.333Z,25.05
2016-05-23T10:34:39.850Z,25.02
2016-05-23T10:35:36.915Z,25
2016-05-23T10:36:37.731Z,24.97
2016-05-23T10:37:38.390Z,24.91
2016-05-23T10:38:38.017Z,24.94
2016-05-23T10:39:39.489Z,24.98
2016-05-23T10:40:37.132Z,24.95
2016-05-23T10:41:37.120Z,24.9
2016-05-23T10:42:37.997Z,24.98
2016-05-23T10:43:38.109Z,24.88
2016-05-23T10:44:37.955Z,24.77
2016-05-23T10:45:35.958Z,24.8
2016-05-23T10:46:36.164Z,24.79
2016-05-23T10:47:36.401Z,24.75
2016-05-23T10:48:35.419Z,24.68
2016-05-23T10:49:37.797Z,24.57
2016-05-23T10:50:39.644Z,24.47
2016-05-23T10:51:40.397Z,24.44
2016-05-23T10:52:37.571Z,24.31
2016-05-23T10:53:36.464Z,24.31
2016-05-23T10:54:38.624Z,24.23
2016-05-23T10:55:35.048Z,24.29
2016-05-23T10:56:35.644Z,24.23
2016-05-23T10:57:35.099Z,24.04
2016-05-23T10:58:36.009Z,24.1
2016-05-23T10:59:37.074Z,24.08
2016-05-23T11:00:36.436Z,23.94
2016-05-23T11:01:36.626Z,23.97
2016-05-23T11:02:36.645Z,23.89
2016-05-23T11:03:35.616Z,23.87
2016-05-23T11:04:38.260Z,23.92
2016-05-23T11:05:37.418Z,24
2016-05-23T11:06:35.859Z,23.9
2016-05-23T11:07:36.737Z,23.95
2016-05-23T11:08:36.318Z,23.97
2016-05-23T11:09:37.351Z,24
2016-05-23T11:10:35.823Z,23.95
2016-05-23T11:11:35.794Z,23.98
2016-05-23T11:12:37.250Z,24.01
2016-05-23T11:13:35.940Z,23.9
2016-05-23T11:14:36.770Z,24.02
2016-05-23T11:15:36.008Z,23.95
2016-05-23T11:16:36.433Z,24.04
2016-05-23T11:17:36.561Z,24.07
2016-05-23T11:18:36.126Z,24.07
2016-05-23T11:19:36.050Z,23.95
2016-05-23T11:20:36.178Z,24
2016-05-23T11:21:36.242Z,23.9
2016-05-23T11:22:36.183Z,23.9
2016-05-23T11:23:36.342Z,23.9
2016-05-23T11:24:36.282Z,23.95
2016-05-23T11:25:37.019Z,23.9
2016-05-23T11:26:37.288Z,23.8
2016-05-23T11:27:36.400Z,23.79
2016-05-23T11:28:36.543Z,23.75
2016-05-23T11:29:37.124Z,23.87
2016-05-23T11:30:36.564Z,23.86
2016-05-23T11:31:36.644Z,23.86
2016-05-23T11:32:36.632Z,23.86
2016-05-23T11:33:36.885Z,23.83
2016-05-23T11:34:36.857Z,23.87
2016-05-23T11:35:36.984Z,23.83
2016-05-23T11:36:37.565Z,23.92
2016-05-23T11:37:36.865Z,23.8
2016-05-23T11:38:37.054Z,23.85
2016-05-23T11:39:39.010Z,23.83
2016-05-23T11:40:38.090Z,23.77
2016-05-23T11:41:37.093Z,23.76
2016-05-23T11:42:37.268Z,23.82
2016-05-23T11:43:37.708Z,23.9
2016-05-23T11:44:37.195Z,23.95
2016-05-23T11:45:37.214Z,23.89
2016-05-23T11:46:37.278Z,23.97
2016-05-23T11:47:37.312Z,24.01
2016-05-23T11:48:37.206Z,24.04
2016-05-23T11:49:37.255Z,24.05
2016-05-23T11:50:37.289Z,24.07
2016-05-23T11:51:37.823Z,24.01
2016-05-23T11:52:38.014Z,24.05
2016-05-23T11:53:37.783Z,24.02
2016-05-23T11:54:38.253Z,24.07
2016-05-23T11:55:39.459Z,24.05
2016-05-23T11:56:39.540Z,24.08
2016-05-23T11:57:37.855Z,24.19
2016-05-23T11:58:39.108Z,24.14
2016-05-23T11:59:38.049Z,24.17
2016-05-23T12:00:38.161Z,24
2016-05-23T12:01:37.912Z,24.14
2016-05-23T12:02:38.462Z,24.16
2016-05-23T12:03:38.121Z,24.05
2016-05-23T12:04:38.952Z,24.07
2016-05-23T12:05:38.158Z,24.01
2016-05-23T12:06:38.661Z,23.98
2016-05-23T12:07:39.929Z,23.9
2016-05-23T12:08:38.651Z,23.87
2016-05-23T12:09:39.154Z,23.89
2016-05-23T12:10:39.297Z,23.97
2016-05-23T12:11:40.471Z,24.04
2016-05-23T12:12:40.192Z,24.14
2016-05-23T12:13:38.617Z,24.22
2016-05-23T12:14:42.604Z,24.37
2016-05-23T12:15:38.873Z,24.53
2016-05-23T12:16:39.719Z,24.71
2016-05-23T12:17:39.378Z,24.83
2016-05-23T12:18:39.911Z,25.06
2016-05-23T12:19:39.867Z,25.15
2016-05-23T12:20:40.636Z,25.38
2016-05-23T12:21:40.608Z,25.42
2016-05-23T12:22:39.923Z,25.52
2016-05-23T12:23:39.144Z,25.5
2016-05-23T12:24:40.397Z,25.44
2016-05-23T12:25:39.883Z,25.43
2016-05-23T12:26:40.777Z,25.42
2016-05-23T12:27:40.233Z,25.37
2016-05-23T12:28:40.298Z,25.37
2016-05-23T12:29:41.316Z,25.34
2016-05-23T12:30:41.866Z,25.31
2016-05-23T12:31:40.072Z,25.2
2016-05-23T12:32:43.543Z,25.25
2016-05-23T12:33:39.577Z,25.27
2016-05-23T12:34:40.267Z,25.25
2016-05-23T12:35:39.863Z,25.32
2016-05-23T12:36:43.679Z,25.24
2016-05-23T12:37:39.666Z,25.31
2016-05-23T12:38:40.029Z,25.31
2016-05-23T12:39:40.640Z,25.28
2016-05-23T12:40:40.720Z,25.37
2016-05-23T12:41:41.442Z,25.39
2016-05-23T12:42:39.960Z,25.35
2016-05-23T12:43:40.588Z,25.35
2016-05-23T12:44:39.841Z,25.35
2016-05-23T12:45:40.187Z,25.5
2016-05-23T12:46:40.112Z,25.52
2016-05-23T12:47:40.443Z,25.57
2016-05-23T12:48:41.134Z,25.79
2016-05-23T12:49:40.183Z,26.12
2016-05-23T12:50:40.278Z,26.39
2016-05-23T12:51:40.423Z,26.62
2016-05-23T12:52:40.737Z,26.84
2016-05-23T12:53:40.319Z,27.06
2016-05-23T12:54:40.837Z,27.29
2016-05-23T12:55:40.730Z,27.46